Time;durP1;ratioP1;P1;durP2;ratioP2;P2;SDS_P1;SDS_P2;PMS_P1;PMS_P2;Temp;Humidity;BMP_temperature;BMP_pressure;BME280_temperature;BME280_humidity;BME280_pressure;Samples;Min_cycle;Max_cycle;Signal;HPM_P1;HPM_P2
2022/12/05 00:00:34;;;;;;;;;;;;;;;;;;5025136;28;19925;-57
2022/12/05 00:03:00;;;;;;;;;;;;;;;;;;5026291;28;20413;-58
2022/12/05 00:05:26;;;;;;;;;;;;;;;;;;5026932;28;19932;-58
2022/12/05 00:07:52;;;;;;;;;;;;;;;;;;5026150;28;19925;-56
2022/12/05 00:10:18;;;;;;;;;;;;;;;;;;5026152;28;19925;-56
2022/12/05 00:12:44;;;;;;;;;;;;;;;;;;5025555;28;19979;-57
2022/12/05 00:15:11;;;;;;;;;;;;;;;;;;5025912;28;19926;-58
2022/12/05 00:17:37;;;;;;;;;;;;;;;;;;5025897;28;19925;-58
2022/12/05 00:20:03;;;;;;;;;;;;;;;;;;5026152;28;19928;-58
2022/12/05 00:22:29;;;;;;;;;;;;;;;;;;5026161;28;19925;-57
2022/12/05 00:24:55;;;;;;;;;;;;;;;;;;5025869;28;19967;-57
2022/12/05 00:27:21;;;;;;;;;;;;;;;;;;5025997;28;20445;-58
2022/12/05 00:29:47;;;;;;;;;;;;;;;;;;5025293;28;20321;-57
2022/12/05 00:32:13;;;;;;;;;;;;;;;;;;5026222;28;20391;-57
2022/12/05 00:34:39;;;;;;;;;;;;;;;;;;5027322;28;19932;-57
2022/12/05 00:37:05;;;;;;;;;;;;;;;;;;5029661;28;20354;-55
2022/12/05 00:39:31;;;;;;;;;;;;;;;;;;5029309;28;19929;-54
2022/12/05 00:41:57;;;;;;;;;;;;;;;;;;5030454;28;19929;-55
2022/12/05 00:44:23;;;;;;;;;;;;;;;;;;5028948;28;20345;-55
2022/12/05 00:46:49;;;;;;;;;;;;;;;;;;5029547;28;19928;-55
2022/12/05 00:49:15;;;;;;;;;;;;;;;;;;5029329;28;19929;-55
2022/12/05 00:51:41;;;;;;;;;;;;;;;;;;5029623;28;20031;-53
2022/12/05 00:54:07;;;;;;;;;;;;;;;;;;5029187;28;19972;-56
2022/12/05 00:56:33;;;;;;;;;;;;;;;;;;5029438;28;19965;-56
2022/12/05 00:58:59;;;;;;;;;;;;;;;;;;5029197;28;19944;-54
2022/12/05 01:01:25;;;;;;;;;;;;;;;;;;5028847;28;19925;-55
2022/12/05 01:03:51;;;;;;;;;;;;;;;;;;5044753;28;20295;-56
2022/12/05 01:06:17;;;;;;;;;;;;;;;;;;5028960;28;20401;-56
2022/12/05 01:17:51;;;;;;;;;;;;;;;;;;5027976;28;20437;-56
2022/12/05 01:20:17;;;;;;;;;;;;;;;;;;5029220;28;19929;-57
2022/12/05 01:22:43;;;;;;;;;;;;;;;;;;5028374;28;20010;-56
2022/12/05 01:25:09;;;;;;;;;;;;;;;;;;5029052;28;20370;-57
2022/12/05 01:27:35;;;;;;;;;;;;;;;;;;5020645;28;20323;-55
2022/12/05 01:30:01;;;;;;;;;;;;;;;;;;5027381;28;20278;-56
2022/12/05 01:32:27;;;;;;;;;;;;;;;;;;5029063;28;20374;-55
2022/12/05 01:34:53;;;;;;;;;;;;;;;;;;5028616;28;19971;-57
2022/12/05 01:37:19;;;;;;;;;;;;;;;;;;5028174;28;19929;-56
2022/12/05 01:39:45;;;;;;;;;;;;;;;;;;5028530;28;19925;-56
2022/12/05 01:42:11;;;;;;;;;;;;;;;;;;5028868;28;19925;-56
2022/12/05 01:44:37;;;;;;;;;;;;;;;;;;5025495;28;19979;-56
2022/12/05 01:47:03;;;;;;;;;;;;;;;;;;5028495;28;19929;-55
2022/12/05 01:49:29;;;;;;;;;;;;;;;;;;5028040;28;19931;-56
2022/12/05 01:51:55;;;;;;;;;;;;;;;;;;5028708;28;19970;-56
2022/12/05 01:54:21;;;;;;;;;;;;;;;;;;5028271;28;20428;-57
2022/12/05 01:56:47;;;;;;;;;;;;;;;;;;5027944;28;20268;-56
2022/12/05 01:59:13;;;;;;;;;;;;;;;;;;5027408;28;20359;-55
2022/12/05 02:01:39;;;;;;;;;;;;;;;;;;5027808;28;19932;-57
2022/12/05 02:04:05;;;;;;;;;;;;;;;;;;5028297;28;19979;-57
2022/12/05 02:06:31;;;;;;;;;;;;;;;;;;5027799;28;20382;-57
2022/12/05 02:08:57;;;;;;;;;;;;;;;;;;5028230;28;19931;-57
2022/12/05 02:11:23;;;;;;;;;;;;;;;;;;5027775;28;20314;-56
2022/12/05 02:13:49;;;;;;;;;;;;;;;;;;5027249;28;19929;-56
2022/12/05 02:16:15;;;;;;;;;;;;;;;;;;5026891;28;19926;-56
2022/12/05 02:18:41;;;;;;;;;;;;;;;;;;5027278;28;20465;-56
2022/12/05 02:21:07;;;;;;;;;;;;;;;;;;5028054;28;19929;-56
2022/12/05 02:23:33;;;;;;;;;;;;;;;;;;5027716;28;19925;-57
2022/12/05 02:25:59;;;;;;;;;;;;;;;;;;5026346;28;19925;-56
2022/12/05 02:28:25;;;;;;;;;;;;;;;;;;5027582;28;19987;-56
2022/12/05 02:30:51;;;;;;;;;;;;;;;;;;5026569;28;20371;-55
2022/12/05 02:33:17;;;;;;;;;;;;;;;;;;5027483;28;20012;-56
2022/12/05 02:35:43;;;;;;;;;;;;;;;;;;5027121;28;20279;-56
2022/12/05 02:38:09;;;;;;;;;;;;;;;;;;5027347;28;19933;-56
2022/12/05 02:40:35;;;;;;;;;;;;;;;;;;5027029;28;19925;-56
2022/12/05 02:43:01;;;;;;;;;;;;;;;;;;5027031;28;19929;-55
2022/12/05 02:45:27;;;;;;;;;;;;;;;;;;5026965;28;20378;-56
2022/12/05 02:47:53;;;;;;;;;;;;;;;;;;5026990;28;19932;-56
2022/12/05 02:50:19;;;;;;;;;;;;;;;;;;5027149;28;19936;-56
2022/12/05 02:52:45;;;;;;;;;;;;;;;;;;5026950;28;19925;-57
2022/12/05 02:55:11;;;;;;;;;;;;;;;;;;5027308;28;20015;-56
2022/12/05 02:57:37;;;;;;;;;;;;;;;;;;5025517;28;20432;-56
2022/12/05 03:00:03;;;;;;;;;;;;;;;;;;5026391;28;19925;-57
2022/12/05 03:02:30;;;;;;;;;;;;;;;;;;5025356;28;20298;-57
2022/12/05 03:04:56;;;;;;;;;;;;;;;;;;5027322;28;20477;-57
2022/12/05 03:07:22;;;;;;;;;;;;;;;;;;5027101;28;19935;-57
2022/12/05 03:09:48;;;;;;;;;;;;;;;;;;5026762;28;19925;-57
2022/12/05 03:12:14;;;;;;;;;;;;;;;;;;5026126;28;20382;-57
2022/12/05 03:14:40;;;;;;;;;;;;;;;;;;5025859;28;20078;-57
2022/12/05 03:17:06;;;;;;;;;;;;;;;;;;5026768;28;19925;-57
2022/12/05 03:19:32;;;;;;;;;;;;;;;;;;5024950;28;19925;-57
2022/12/05 03:21:58;;;;;;;;;;;;;;;;;;5026960;28;19925;-58
2022/12/05 03:24:24;;;;;;;;;;;;;;;;;;5026685;28;19932;-56
2022/12/05 03:26:50;;;;;;;;;;;;;;;;;;5025675;28;20687;-57
2022/12/05 03:29:16;;;;;;;;;;;;;;;;;;5025715;28;20462;-57
2022/12/05 03:31:42;;;;;;;;;;;;;;;;;;5026512;28;20007;-57
2022/12/05 03:34:08;;;;;;;;;;;;;;;;;;5026343;28;19933;-57
2022/12/05 03:36:34;;;;;;;;;;;;;;;;;;5026257;28;19925;-56
2022/12/05 03:39:00;;;;;;;;;;;;;;;;;;5026355;28;20304;-56
2022/12/05 03:41:26;;;;;;;;;;;;;;;;;;5026129;28;19970;-56
2022/12/05 03:43:52;;;;;;;;;;;;;;;;;;5025264;28;19929;-57
2022/12/05 03:46:18;;;;;;;;;;;;;;;;;;5026182;28;19948;-56
2022/12/05 03:48:44;;;;;;;;;;;;;;;;;;5026465;28;20595;-58
2022/12/05 03:51:10;;;;;;;;;;;;;;;;;;5026071;28;20418;-57
2022/12/05 03:53:36;;;;;;;;;;;;;;;;;;5026103;28;20612;-58
2022/12/05 03:56:02;;;;;;;;;;;;;;;;;;5025401;28;19925;-57
2022/12/05 03:58:28;;;;;;;;;;;;;;;;;;5026587;28;20006;-57
2022/12/05 04:00:54;;;;;;;;;;;;;;;;;;5025642;28;19925;-57
2022/12/05 04:03:20;;;;;;;;;;;;;;;;;;5026722;28;19925;-57
2022/12/05 04:05:46;;;;;;;;;;;;;;;;;;5025809;28;19995;-57
2022/12/05 04:08:12;;;;;;;;;;;;;;;;;;5026185;28;20026;-54
2022/12/05 04:10:52;;;;;;;;;;;;;;;;;;5029382;28;20282;-57
2022/12/05 04:13:18;;;;;;;;;;;;;;;;;;5030015;28;20900;-57
2022/12/05 04:18:29;;;;;;;;;;;;;;;;;;5029221;28;20043;-56
2022/12/05 04:23:39;;;;;;;;;;;;;;;;;;5029656;28;20382;-58
2022/12/05 04:26:05;;;;;;;;;;;;;;;;;;5029831;28;19932;-57
2022/12/05 04:28:32;;;;;;;;;;;;;;;;;;5029658;28;19976;-57
2022/12/05 04:30:58;;;;;;;;;;;;;;;;;;5029143;28;19925;-57
2022/12/05 04:33:24;;;;;;;;;;;;;;;;;;5029644;28;19934;-57
2022/12/05 04:35:50;;;;;;;;;;;;;;;;;;5029407;28;20335;-58
2022/12/05 04:38:16;;;;;;;;;;;;;;;;;;5029484;28;19925;-57
2022/12/05 04:40:42;;;;;;;;;;;;;;;;;;5029163;28;19925;-57
2022/12/05 04:43:08;;;;;;;;;;;;;;;;;;5029132;28;19960;-57
2022/12/05 04:45:34;;;;;;;;;;;;;;;;;;5028568;28;19925;-56
2022/12/05 04:48:00;;;;;;;;;;;;;;;;;;5029441;28;19925;-57
2022/12/05 04:50:26;;;;;;;;;;;;;;;;;;5028348;28;20041;-56
2022/12/05 04:52:52;;;;;;;;;;;;;;;;;;5029218;28;19925;-57
2022/12/05 04:55:19;;;;;;;;;;;;;;;;;;5029587;28;20409;-56
2022/12/05 04:57:45;;;;;;;;;;;;;;;;;;5028493;28;20004;-57
2022/12/05 05:00:11;;;;;;;;;;;;;;;;;;5028577;28;20545;-57
2022/12/05 05:02:37;;;;;;;;;;;;;;;;;;5029151;28;19932;-57
2022/12/05 05:05:03;;;;;;;;;;;;;;;;;;5029335;28;19925;-56
2022/12/05 05:07:29;;;;;;;;;;;;;;;;;;5029067;28;19925;-56
2022/12/05 05:09:55;;;;;;;;;;;;;;;;;;5029046;28;20424;-57
2022/12/05 05:12:21;;;;;;;;;;;;;;;;;;5028962;28;19925;-57
2022/12/05 05:14:47;;;;;;;;;;;;;;;;;;5027631;28;20356;-57
2022/12/05 05:17:13;;;;;;;;;;;;;;;;;;5029207;28;19932;-56
2022/12/05 05:19:39;;;;;;;;;;;;;;;;;;5026985;28;19980;-57
2022/12/05 05:22:05;;;;;;;;;;;;;;;;;;5028676;28;19933;-57
2022/12/05 05:24:31;;;;;;;;;;;;;;;;;;5028835;28;19929;-57
2022/12/05 05:26:57;;;;;;;;;;;;;;;;;;5028874;28;19940;-57
2022/12/05 05:29:23;;;;;;;;;;;;;;;;;;5027785;28;20047;-56
2022/12/05 05:31:49;;;;;;;;;;;;;;;;;;5028516;28;20442;-57
2022/12/05 05:34:15;;;;;;;;;;;;;;;;;;5028813;28;20431;-58
2022/12/05 05:36:41;;;;;;;;;;;;;;;;;;5028193;28;19979;-57
2022/12/05 05:39:07;;;;;;;;;;;;;;;;;;5028614;28;19933;-55
2022/12/05 05:41:33;;;;;;;;;;;;;;;;;;5028180;28;19925;-57
2022/12/05 05:43:59;;;;;;;;;;;;;;;;;;5027572;28;19933;-57
2022/12/05 05:46:25;;;;;;;;;;;;;;;;;;5028867;28;20003;-57
2022/12/05 05:48:51;;;;;;;;;;;;;;;;;;5028125;28;19971;-56
2022/12/05 05:51:17;;;;;;;;;;;;;;;;;;5027864;28;19936;-56
2022/12/05 05:53:43;;;;;;;;;;;;;;;;;;5027021;28;19925;-57
2022/12/05 05:56:09;;;;;;;;;;;;;;;;;;5027972;28;19939;-57
2022/12/05 05:58:35;;;;;;;;;;;;;;;;;;5027466;28;20302;-57
2022/12/05 06:01:01;;;;;;;;;;;;;;;;;;5027955;28;19932;-57
2022/12/05 06:03:27;;;;;;;;;;;;;;;;;;5022489;28;19964;-57
2022/12/05 06:05:53;;;;;;;;;;;;;;;;;;5027539;28;20418;-56
2022/12/05 06:08:19;;;;;;;;;;;;;;;;;;5027758;28;19929;-57
2022/12/05 06:10:45;;;;;;;;;;;;;;;;;;5027031;28;19925;-57
2022/12/05 06:13:11;;;;;;;;;;;;;;;;;;5027526;28;20298;-57
2022/12/05 06:15:37;;;;;;;;;;;;;;;;;;5026754;28;19925;-58
2022/12/05 06:18:03;;;;;;;;;;;;;;;;;;5028033;28;19928;-55
2022/12/05 06:20:29;;;;;;;;;;;;;;;;;;5027463;28;20330;-56
2022/12/05 06:22:55;;;;;;;;;;;;;;;;;;5028271;28;19925;-57
2022/12/05 06:25:21;;;;;;;;;;;;;;;;;;5027422;28;19932;-57
2022/12/05 06:27:47;;;;;;;;;;;;;;;;;;5027815;28;19929;-57
2022/12/05 06:30:13;;;;;;;;;;;;;;;;;;5027118;28;19968;-57
2022/12/05 06:32:39;;;;;;;;;;;;;;;;;;5023597;28;19925;-57
2022/12/05 06:35:14;;;;;;;;;;;;;;;;;;5022147;28;19932;-57
2022/12/05 06:37:40;;;;;;;;;;;;;;;;;;5016120;28;19999;-56
2022/12/05 06:40:05;;;;;;;;;;;;;;;;;;5017696;28;19929;-57
2022/12/05 06:42:31;;;;;;;;;;;;;;;;;;5022453;28;19995;-57
2022/12/05 06:44:57;;;;;;;;;;;;;;;;;;5026458;28;19925;-57
2022/12/05 06:47:23;;;;;;;;;;;;;;;;;;5027250;28;19932;-56
2022/12/05 06:49:49;;;;;;;;;;;;;;;;;;5026889;28;20363;-57
2022/12/05 06:52:15;;;;;;;;;;;;;;;;;;5026797;28;20015;-57
2022/12/05 06:54:41;;;;;;;;;;;;;;;;;;5027010;28;19971;-58
2022/12/05 06:57:08;;;;;;;;;;;;;;;;;;5027324;28;19984;-57
2022/12/05 06:59:34;;;;;;;;;;;;;;;;;;5025882;28;19979;-54
2022/12/05 07:02:00;;;;;;;;;;;;;;;;;;5024479;28;19929;-59
2022/12/05 07:04:26;;;;;;;;;;;;;;;;;;5027327;28;20367;-57
2022/12/05 07:06:52;;;;;;;;;;;;;;;;;;5026878;28;20302;-57
2022/12/05 07:09:18;;;;;;;;;;;;;;;;;;5027094;28;20529;-57
2022/12/05 07:11:44;;;;;;;;;;;;;;;;;;5025811;28;19925;-57
2022/12/05 07:14:10;;;;;;;;;;;;;;;;;;5026045;28;19932;-57
2022/12/05 07:16:36;;;;;;;;;;;;;;;;;;5026516;28;20378;-58
2022/12/05 07:19:02;;;;;;;;;;;;;;;;;;5027088;28;19921;-57
2022/12/05 07:21:28;;;;;;;;;;;;;;;;;;5026721;28;19932;-57
2022/12/05 07:23:54;;;;;;;;;;;;;;;;;;5026780;28;20000;-57
2022/12/05 07:26:20;;;;;;;;;;;;;;;;;;5026842;28;19964;-54
2022/12/05 07:28:46;;;;;;;;;;;;;;;;;;5025714;28;19971;-57
2022/12/05 07:31:12;;;;;;;;;;;;;;;;;;5026441;28;19925;-56
2022/12/05 07:33:38;;;;;;;;;;;;;;;;;;5026485;28;19998;-57
2022/12/05 07:36:04;;;;;;;;;;;;;;;;;;5026268;28;20367;-56
2022/12/05 07:38:30;;;;;;;;;;;;;;;;;;5026327;28;19925;-58
2022/12/05 07:40:56;;;;;;;;;;;;;;;;;;5027193;28;19933;-57
2022/12/05 07:43:22;;;;;;;;;;;;;;;;;;5040964;28;19921;-57
2022/12/05 07:45:48;;;;;;;;;;;;;;;;;;5026177;28;20294;-57
2022/12/05 07:48:14;;;;;;;;;;;;;;;;;;5026636;28;20350;-57
2022/12/05 07:50:40;;;;;;;;;;;;;;;;;;5025779;28;20421;-58
2022/12/05 07:53:06;;;;;;;;;;;;;;;;;;5026435;28;19925;-53
2022/12/05 07:55:32;;;;;;;;;;;;;;;;;;5026238;28;19975;-57
2022/12/05 07:57:59;;;;;;;;;;;;;;;;;;5026809;28;20534;-56
2022/12/05 08:00:24;;;;;;;;;;;;;;;;;;5025737;28;20370;-57
2022/12/05 08:02:50;;;;;;;;;;;;;;;;;;5026049;28;19948;-56
2022/12/05 08:05:16;;;;;;;;;;;;;;;;;;5025456;28;19925;-57
2022/12/05 08:07:42;;;;;;;;;;;;;;;;;;5025805;28;20437;-56
2022/12/05 08:10:08;;;;;;;;;;;;;;;;;;5026417;28;19929;-57
2022/12/05 08:12:36;;;;;;;;;;;;;;;;;;5026169;28;19925;-56
2022/12/05 08:15:02;;;;;;;;;;;;;;;;;;5025539;28;20291;-57
2022/12/05 08:17:28;;;;;;;;;;;;;;;;;;5026654;28;20627;-57
2022/12/05 08:19:55;;;;;;;;;;;;;;;;;;5025917;28;19925;-57
2022/12/05 08:22:21;;;;;;;;;;;;;;;;;;5026159;28;19925;-57
2022/12/05 08:24:47;;;;;;;;;;;;;;;;;;5025998;28;19979;-57
2022/12/05 08:27:13;;;;;;;;;;;;;;;;;;5026043;28;19925;-57
2022/12/05 08:29:39;;;;;;;;;;;;;;;;;;5024806;28;20303;-57
2022/12/05 08:32:05;;;;;;;;;;;;;;;;;;5026051;28;19964;-56
2022/12/05 08:34:31;;;;;;;;;;;;;;;;;;5025041;28;19933;-57
2022/12/05 08:36:57;;;;;;;;;;;;;;;;;;5026257;28;19925;-57
2022/12/05 08:39:23;;;;;;;;;;;;;;;;;;5025870;28;20418;-56
2022/12/05 08:41:49;;;;;;;;;;;;;;;;;;5025806;28;20513;-57
2022/12/05 08:44:15;;;;;;;;;;;;;;;;;;5024835;28;19987;-57
2022/12/05 08:46:41;;;;;;;;;;;;;;;;;;5025876;28;20558;-57
2022/12/05 08:49:07;;;;;;;;;;;;;;;;;;5026138;28;20063;-57
2022/12/05 08:51:33;;;;;;;;;;;;;;;;;;5025701;28;20011;-55
2022/12/05 08:53:59;;;;;;;;;;;;;;;;;;5025621;28;19925;-57
2022/12/05 08:56:26;;;;;;;;;;;;;;;;;;5028501;28;19925;-57
2022/12/05 08:58:52;;;;;;;;;;;;;;;;;;5028664;28;19932;-57
2022/12/05 09:01:18;;;;;;;;;;;;;;;;;;5029116;28;19976;-56
2022/12/05 09:03:44;;;;;;;;;;;;;;;;;;5029439;28;20283;-57
2022/12/05 09:06:10;;;;;;;;;;;;;;;;;;5029256;28;19929;-57
2022/12/05 09:08:36;;;;;;;;;;;;;;;;;;5029322;28;19925;-57
2022/12/05 09:11:02;;;;;;;;;;;;;;;;;;5027960;28;19925;-57
2022/12/05 09:13:28;;;;;;;;;;;;;;;;;;5028724;28;19952;-57
2022/12/05 09:15:54;;;;;;;;;;;;;;;;;;5028887;28;19925;-56
2022/12/05 09:18:20;;;;;;;;;;;;;;;;;;5028883;28;20419;-57
2022/12/05 09:20:46;;;;;;;;;;;;;;;;;;5028963;28;19931;-57
2022/12/05 09:23:12;;;;;;;;;;;;;;;;;;5029154;28;19925;-58
2022/12/05 09:25:38;;;;;;;;;;;;;;;;;;5027356;28;19935;-56
2022/12/05 09:28:04;;;;;;;;;;;;;;;;;;5026721;28;19979;-57
2022/12/05 09:30:30;;;;;;;;;;;;;;;;;;5028087;28;19932;-57
2022/12/05 09:32:56;;;;;;;;;;;;;;;;;;5029452;28;19931;-53
2022/12/05 09:35:22;;;;;;;;;;;;;;;;;;5028885;28;20012;-57
2022/12/05 09:37:48;;;;;;;;;;;;;;;;;;5028100;28;20020;-56
2022/12/05 09:40:14;;;;;;;;;;;;;;;;;;5028810;28;20387;-57
2022/12/05 09:42:40;;;;;;;;;;;;;;;;;;5028150;28;19979;-56
2022/12/05 09:45:06;;;;;;;;;;;;;;;;;;5027551;28;19932;-57
2022/12/05 09:47:32;;;;;;;;;;;;;;;;;;5028563;28;20008;-57
2022/12/05 09:49:58;;;;;;;;;;;;;;;;;;5028662;28;20020;-57
2022/12/05 09:52:24;;;;;;;;;;;;;;;;;;5023372;28;19926;-54
2022/12/05 09:54:52;;;;;;;;;;;;;;;;;;5026964;28;19925;-57
2022/12/05 09:57:18;;;;;;;;;;;;;;;;;;5028357;28;20354;-56
2022/12/05 09:59:44;;;;;;;;;;;;;;;;;;5026832;28;20430;-57
2022/12/05 10:02:10;;;;;;;;;;;;;;;;;;5028487;28;19990;-57
2022/12/05 10:04:37;;;;;;;;;;;;;;;;;;5028142;28;19970;-58
2022/12/05 10:07:05;;;;;;;;;;;;;;;;;;5028243;28;19948;-58
2022/12/05 10:09:31;;;;;;;;;;;;;;;;;;5026563;28;19925;-51
2022/12/05 10:11:57;;;;;;;;;;;;;;;;;;5027656;28;19936;-57
2022/12/05 10:14:23;;;;;;;;;;;;;;;;;;5027249;28;19931;-55
2022/12/05 10:16:49;;;;;;;;;;;;;;;;;;5027922;28;19929;-55
2022/12/05 10:19:15;;;;;;;;;;;;;;;;;;5028131;28;19925;-57
2022/12/05 10:21:41;;;;;;;;;;;;;;;;;;5027792;28;19925;-57
2022/12/05 10:24:07;;;;;;;;;;;;;;;;;;5027820;28;19929;-56
2022/12/05 10:26:34;;;;;;;;;;;;;;;;;;5026874;28;19956;-57
2022/12/05 10:29:00;;;;;;;;;;;;;;;;;;5027224;28;19969;-58
2022/12/05 10:31:26;;;;;;;;;;;;;;;;;;5028211;28;19925;-58
2022/12/05 10:33:52;;;;;;;;;;;;;;;;;;5026286;28;19925;-57
2022/12/05 10:36:18;;;;;;;;;;;;;;;;;;5027762;28;19929;-56
2022/12/05 10:38:44;;;;;;;;;;;;;;;;;;5026668;28;19925;-57
2022/12/05 10:41:10;;;;;;;;;;;;;;;;;;5027074;28;19929;-57
2022/12/05 10:43:36;;;;;;;;;;;;;;;;;;5026704;28;19925;-56
2022/12/05 10:46:02;;;;;;;;;;;;;;;;;;5027522;28;20008;-56
2022/12/05 10:48:30;;;;;;;;;;;;;;;;;;5027856;28;20020;-57
2022/12/05 10:50:56;;;;;;;;;;;;;;;;;;5027800;28;19932;-57
2022/12/05 10:53:22;;;;;;;;;;;;;;;;;;5027133;28;20282;-56
2022/12/05 10:55:50;;;;;;;;;;;;;;;;;;5026278;28;20456;-56
2022/12/05 10:58:16;;;;;;;;;;;;;;;;;;5026640;28;19925;-57
2022/12/05 11:00:45;;;;;;;;;;;;;;;;;;5027201;28;19925;-57
2022/12/05 11:03:11;;;;;;;;;;;;;;;;;;5027210;28;19925;-57
2022/12/05 11:05:37;;;;;;;;;;;;;;;;;;5026912;28;19986;-58
2022/12/05 11:08:03;;;;;;;;;;;;;;;;;;5026449;28;19925;-57
2022/12/05 11:10:29;;;;;;;;;;;;;;;;;;5026891;28;19925;-55
2022/12/05 11:12:56;;;;;;;;;;;;;;;;;;5026681;28;20019;-58
2022/12/05 11:15:23;;;;;;;;;;;;;;;;;;5027082;28;19929;-57
2022/12/05 11:17:50;;;;;;;;;;;;;;;;;;5026172;28;20405;-57
2022/12/05 11:20:16;;;;;;;;;;;;;;;;;;5026925;28;19925;-53
2022/12/05 11:22:42;;;;;;;;;;;;;;;;;;5026133;28;19932;-57
2022/12/05 11:25:08;;;;;;;;;;;;;;;;;;5026757;28;19929;-56
2022/12/05 11:27:34;;;;;;;;;;;;;;;;;;5026083;28;19926;-57
2022/12/05 11:30:00;;;;;;;;;;;;;;;;;;5026369;28;19967;-57
2022/12/05 11:32:26;;;;;;;;;;;;;;;;;;5027128;28;20409;-57
2022/12/05 11:34:52;;;;;;;;;;;;;;;;;;5026444;28;20268;-57
2022/12/05 11:37:18;;;;;;;;;;;;;;;;;;5025567;28;20032;-57
2022/12/05 11:39:44;;;;;;;;;;;;;;;;;;5026384;28;19925;-57
2022/12/05 11:42:10;;;;;;;;;;;;;;;;;;5026305;28;20508;-57
2022/12/05 11:44:36;;;;;;;;;;;;;;;;;;5025488;28;19926;-56
2022/12/05 11:47:02;;;;;;;;;;;;;;;;;;5026046;28;19931;-57
2022/12/05 11:49:28;;;;;;;;;;;;;;;;;;5027066;28;19936;-57
2022/12/05 11:51:54;;;;;;;;;;;;;;;;;;5026399;28;20267;-57
2022/12/05 11:54:20;;;;;;;;;;;;;;;;;;5026376;28;19929;-57
2022/12/05 11:56:46;;;;;;;;;;;;;;;;;;5026240;28;19971;-53
2022/12/05 11:59:12;;;;;;;;;;;;;;;;;;5025237;28;20379;-58
2022/12/05 12:01:38;;;;;;;;;;;;;;;;;;5026280;28;19975;-56
2022/12/05 12:04:04;;;;;;;;;;;;;;;;;;5019135;28;20466;-56
2022/12/05 12:06:31;;;;;;;;;;;;;;;;;;5018290;28;20402;-57
2022/12/05 12:08:57;;;;;;;;;;;;;;;;;;5016572;28;20801;-57
2022/12/05 12:11:23;;;;;;;;;;;;;;;;;;5015940;28;20379;-57
2022/12/05 12:13:49;;;;;;;;;;;;;;;;;;5008957;28;19983;-56
2022/12/05 12:16:15;;;;;;;;;;;;;;;;;;5023625;28;19925;-57
2022/12/05 12:18:41;;;;;;;;;;;;;;;;;;5022651;28;19933;-57
2022/12/05 12:21:07;;;;;;;;;;;;;;;;;;5022740;28;19929;-57
2022/12/05 12:23:33;;;;;;;;;;;;;;;;;;5023634;28;19961;-57
2022/12/05 12:25:59;;;;;;;;;;;;;;;;;;5023541;28;19952;-56
2022/12/05 12:28:25;;;;;;;;;;;;;;;;;;5018547;28;20299;-56
2022/12/05 12:30:51;;;;;;;;;;;;;;;;;;5023966;28;19975;-57
2022/12/05 12:33:17;;;;;;;;;;;;;;;;;;5027040;28;20415;-57
2022/12/05 12:35:43;;;;;;;;;;;;;;;;;;5026683;28;19939;-56
2022/12/05 12:38:09;;;;;;;;;;;;;;;;;;5027319;28;19929;-57
2022/12/05 12:40:35;;;;;;;;;;;;;;;;;;5027308;28;20386;-58
2022/12/05 12:43:01;;;;;;;;;;;;;;;;;;5027101;28;20000;-57
2022/12/05 12:45:27;;;;;;;;;;;;;;;;;;5027131;28;19937;-57
2022/12/05 12:47:53;;;;;;;;;;;;;;;;;;5039322;28;19936;-55
2022/12/05 12:50:20;;;;;;;;;;;;;;;;;;5023076;28;20008;-57
2022/12/05 12:52:46;;;;;;;;;;;;;;;;;;5019957;28;19932;-52
2022/12/05 12:55:12;;;;;;;;;;;;;;;;;;5020207;28;19925;-57
2022/12/05 12:57:38;;;;;;;;;;;;;;;;;;5027938;28;19964;-57
2022/12/05 13:00:04;;;;;;;;;;;;;;;;;;5029019;28;19925;-57
2022/12/05 13:02:30;;;;;;;;;;;;;;;;;;5028877;28;19925;-55
2022/12/05 13:04:56;;;;;;;;;;;;;;;;;;5029740;28;19932;-54
2022/12/05 13:07:22;;;;;;;;;;;;;;;;;;5029110;28;19990;-57
2022/12/05 13:09:48;;;;;;;;;;;;;;;;;;5029065;28;20755;-55
2022/12/05 13:12:14;;;;;;;;;;;;;;;;;;5028066;28;19925;-58
2022/12/05 13:14:40;;;;;;;;;;;;;;;;;;5028640;28;19936;-57
2022/12/05 13:17:06;;;;;;;;;;;;;;;;;;5029132;28;19925;-53
2022/12/05 13:19:36;;;;;;;;;;;;;;;;;;5028690;28;19969;-57
2022/12/05 13:22:02;;;;;;;;;;;;;;;;;;5026814;28;19979;-54
2022/12/05 13:24:28;;;;;;;;;;;;;;;;;;5029007;28;19933;-57
2022/12/05 13:26:54;;;;;;;;;;;;;;;;;;5029053;28;19932;-57
2022/12/05 13:29:20;;;;;;;;;;;;;;;;;;5027989;28;20330;-57
2022/12/05 13:31:47;;;;;;;;;;;;;;;;;;5028385;28;19940;-56
2022/12/05 13:34:13;;;;;;;;;;;;;;;;;;5026908;28;19925;-58
2022/12/05 13:42:14;;;;;;;;;;;;;;;;;;5021747;28;20329;-57
2022/12/05 13:44:40;;;;;;;;;;;;;;;;;;5028450;28;19976;-58
2022/12/05 13:47:08;;;;;;;;;;;;;;;;;;5028789;28;19932;-58
2022/12/05 13:49:34;;;;;;;;;;;;;;;;;;5027443;28;19972;-58
2022/12/05 13:52:00;;;;;;;;;;;;;;;;;;5028191;28;19962;-57
2022/12/05 13:54:26;;;;;;;;;;;;;;;;;;5028927;28;20024;-57
2022/12/05 13:56:53;;;;;;;;;;;;;;;;;;5028216;28;20012;-57
2022/12/05 13:59:19;;;;;;;;;;;;;;;;;;5024413;28;20521;-57
2022/12/05 14:01:45;;;;;;;;;;;;;;;;;;5013431;28;19975;-55
2022/12/05 14:04:11;;;;;;;;;;;;;;;;;;5010924;28;19933;-57
2022/12/05 14:06:37;;;;;;;;;;;;;;;;;;5007431;28;20384;-57
2022/12/05 14:09:03;;;;;;;;;;;;;;;;;;5011304;28;20038;-57
2022/12/05 14:11:29;;;;;;;;;;;;;;;;;;5009453;28;19933;-56
2022/12/05 14:13:55;;;;;;;;;;;;;;;;;;5015978;28;19979;-57
2022/12/05 14:16:21;;;;;;;;;;;;;;;;;;5023392;28;19983;-56
2022/12/05 14:18:47;;;;;;;;;;;;;;;;;;5024471;28;19925;-57
2022/12/05 14:21:14;;;;;;;;;;;;;;;;;;5024045;28;19932;-57
2022/12/05 14:23:41;;;;;;;;;;;;;;;;;;5024096;28;19929;-57
2022/12/05 14:26:07;;;;;;;;;;;;;;;;;;5024576;28;19925;-56
2022/12/05 14:28:33;;;;;;;;;;;;;;;;;;5023007;28;20016;-57
2022/12/05 14:30:59;;;;;;;;;;;;;;;;;;5024053;28;19925;-56
2022/12/05 14:33:25;;;;;;;;;;;;;;;;;;5024638;28;19968;-57
2022/12/05 14:35:51;;;;;;;;;;;;;;;;;;5023373;28;19967;-56
2022/12/05 14:38:17;;;;;;;;;;;;;;;;;;5023939;28;19932;-57
2022/12/05 14:40:43;;;;;;;;;;;;;;;;;;5023891;28;19929;-58
2022/12/05 14:43:09;;;;;;;;;;;;;;;;;;5023323;28;19929;-55
2022/12/05 14:45:35;;;;;;;;;;;;;;;;;;5024201;28;20016;-57
2022/12/05 14:48:02;;;;;;;;;;;;;;;;;;5023773;28;19929;-56
2022/12/05 14:50:28;;;;;;;;;;;;;;;;;;5024541;28;19987;-57
2022/12/05 14:52:54;;;;;;;;;;;;;;;;;;5038455;28;20768;-57
2022/12/05 14:55:21;;;;;;;;;;;;;;;;;;5024061;28;19972;-56
2022/12/05 14:57:47;;;;;;;;;;;;;;;;;;5022528;28;19925;-57
2022/12/05 15:00:13;;;;;;;;;;;;;;;;;;5023653;28;19936;-58
2022/12/05 15:02:39;;;;;;;;;;;;;;;;;;5023718;28;19951;-57
2022/12/05 15:05:05;;;;;;;;;;;;;;;;;;5022677;28;19956;-58
2022/12/05 15:07:31;;;;;;;;;;;;;;;;;;5023350;28;19947;-56
2022/12/05 15:09:57;;;;;;;;;;;;;;;;;;5024226;28;20390;-58
2022/12/05 15:12:23;;;;;;;;;;;;;;;;;;5021768;28;19963;-57
2022/12/05 15:14:49;;;;;;;;;;;;;;;;;;5023400;28;20086;-57
2022/12/05 15:17:15;;;;;;;;;;;;;;;;;;5023631;28;20430;-57
2022/12/05 15:19:41;;;;;;;;;;;;;;;;;;5023354;28;19929;-56
2022/12/05 15:22:07;;;;;;;;;;;;;;;;;;5020134;28;19975;-57
2022/12/05 15:24:33;;;;;;;;;;;;;;;;;;5022907;28;19935;-57
2022/12/05 15:26:59;;;;;;;;;;;;;;;;;;5022051;28;19983;-56
2022/12/05 15:29:25;;;;;;;;;;;;;;;;;;5023779;28;20023;-56
2022/12/05 15:31:51;;;;;;;;;;;;;;;;;;5022373;28;20306;-56
2022/12/05 15:34:17;;;;;;;;;;;;;;;;;;5023047;28;19929;-56
2022/12/05 15:36:43;;;;;;;;;;;;;;;;;;5022695;28;19929;-57
2022/12/05 15:39:10;;;;;;;;;;;;;;;;;;5023538;28;19967;-56
2022/12/05 15:41:36;;;;;;;;;;;;;;;;;;5022185;28;19929;-57
2022/12/05 15:44:02;;;;;;;;;;;;;;;;;;5021467;28;19935;-57
2022/12/05 15:46:28;;;;;;;;;;;;;;;;;;5023886;28;20355;-57
2022/12/05 15:48:54;;;;;;;;;;;;;;;;;;5022909;28;20016;-57
2022/12/05 15:51:20;;;;;;;;;;;;;;;;;;5022679;28;19929;-57
2022/12/05 15:53:46;;;;;;;;;;;;;;;;;;5023026;28;19935;-57
2022/12/05 15:56:13;;;;;;;;;;;;;;;;;;5022842;28;20286;-56
2022/12/05 15:58:39;;;;;;;;;;;;;;;;;;5022164;28;19937;-57
2022/12/05 16:01:05;;;;;;;;;;;;;;;;;;5022531;28;19936;-57
2022/12/05 16:03:31;;;;;;;;;;;;;;;;;;5022631;28;19928;-57
2022/12/05 16:05:57;;;;;;;;;;;;;;;;;;5025670;28;19925;-57
2022/12/05 16:08:23;;;;;;;;;;;;;;;;;;5027151;28;19931;-57
2022/12/05 16:10:49;;;;;;;;;;;;;;;;;;5023055;28;19929;-58
2022/12/05 16:13:15;;;;;;;;;;;;;;;;;;5025604;28;19932;-57
2022/12/05 16:15:41;;;;;;;;;;;;;;;;;;5027116;28;20271;-58
2022/12/05 16:18:07;;;;;;;;;;;;;;;;;;5026014;28;19975;-58
2022/12/05 16:20:33;;;;;;;;;;;;;;;;;;5026176;28;19925;-57
2022/12/05 16:22:59;;;;;;;;;;;;;;;;;;5024269;28;20401;-57
2022/12/05 16:25:25;;;;;;;;;;;;;;;;;;5026380;28;19933;-58
2022/12/05 16:27:51;;;;;;;;;;;;;;;;;;5025418;28;19932;-57
2022/12/05 16:30:17;;;;;;;;;;;;;;;;;;5024347;28;19933;-58
2022/12/05 16:32:43;;;;;;;;;;;;;;;;;;5026155;28;19936;-57
2022/12/05 16:35:09;;;;;;;;;;;;;;;;;;5025830;28;19932;-55
2022/12/05 16:37:36;;;;;;;;;;;;;;;;;;5025545;28;19933;-58
2022/12/05 16:40:02;;;;;;;;;;;;;;;;;;5021981;28;19945;-59
2022/12/05 16:42:28;;;;;;;;;;;;;;;;;;5025294;28;19929;-58
2022/12/05 16:44:59;;;;;;;;;;;;;;;;;;5026975;28;19978;-58
2022/12/05 16:47:25;;;;;;;;;;;;;;;;;;5026146;28;19936;-58
2022/12/05 16:49:51;;;;;;;;;;;;;;;;;;5026147;28;19929;-58
2022/12/05 16:52:17;;;;;;;;;;;;;;;;;;5026296;28;19929;-55
2022/12/05 16:54:44;;;;;;;;;;;;;;;;;;5024713;28;20673;-58
2022/12/05 16:57:10;;;;;;;;;;;;;;;;;;5025457;28;19929;-57